createdAt,value
2022-07-26T00:01:03.035Z,1.90
2022-07-26T00:03:50.994Z,2.30
2022-07-26T00:06:38.388Z,1.90
2022-07-26T00:09:24.810Z,1.90
2022-07-26T00:12:10.891Z,2.10
2022-07-26T00:14:57.292Z,2.20
2022-07-26T00:17:43.502Z,1.40
2022-07-26T00:20:30.034Z,1.67
2022-07-26T00:23:16.661Z,1.90
2022-07-26T00:26:02.868Z,1.50
2022-07-26T00:28:49.556Z,1.47
2022-07-26T00:31:36.184Z,1.03
2022-07-26T00:34:22.516Z,2.00
2022-07-26T00:37:09.048Z,1.90
2022-07-26T00:39:55.490Z,1.90
2022-07-26T00:42:42.051Z,1.70
2022-07-26T00:45:28.646Z,1.87
2022-07-26T00:48:15.080Z,2.27
2022-07-26T00:51:02.092Z,2.40
2022-07-26T00:53:48.512Z,1.97
2022-07-26T00:56:34.892Z,1.83
2022-07-26T00:59:21.294Z,1.83
2022-07-26T01:02:09.550Z,1.60
2022-07-26T01:04:55.882Z,1.80
2022-07-26T01:07:42.286Z,1.40
2022-07-26T01:10:28.706Z,1.50
2022-07-26T01:13:20.262Z,1.70
2022-07-26T01:16:06.829Z,1.90
2022-07-26T01:18:53.346Z,1.70
2022-07-26T01:21:40.122Z,1.90
2022-07-26T01:24:26.656Z,1.77
2022-07-26T01:27:13.645Z,1.40
2022-07-26T01:30:00.014Z,1.87
2022-07-26T01:32:46.332Z,1.50
2022-07-26T01:35:32.982Z,1.50
2022-07-26T01:38:19.322Z,1.50
2022-07-26T01:41:05.760Z,1.60
2022-07-26T01:43:51.902Z,1.33
2022-07-26T01:46:38.484Z,1.57
2022-07-26T01:49:24.984Z,1.60
2022-07-26T01:52:11.311Z,1.50
2022-07-26T01:54:57.788Z,1.83
2022-07-26T01:57:47.142Z,1.40
2022-07-26T02:00:34.297Z,1.40
2022-07-26T02:03:20.705Z,1.40
2022-07-26T02:06:07.664Z,1.80
2022-07-26T02:08:54.211Z,1.57
2022-07-26T02:11:41.835Z,1.90
2022-07-26T02:14:28.275Z,2.07
2022-07-26T02:17:15.178Z,1.90
2022-07-26T02:20:02.273Z,1.60
2022-07-26T02:22:48.575Z,2.10
2022-07-26T02:25:35.062Z,1.87
2022-07-26T02:28:22.230Z,1.70
2022-07-26T02:31:08.595Z,1.60
2022-07-26T02:33:55.263Z,1.40
2022-07-26T02:36:41.732Z,1.50
2022-07-26T02:39:28.073Z,1.33
2022-07-26T02:42:14.707Z,1.70
2022-07-26T02:45:00.858Z,1.60
2022-07-26T02:47:52.309Z,1.60
2022-07-26T02:50:38.906Z,1.30
2022-07-26T02:53:25.653Z,1.50
2022-07-26T02:56:11.866Z,1.50
2022-07-26T02:58:58.650Z,1.30
2022-07-26T03:01:45.309Z,1.50
2022-07-26T03:04:31.859Z,1.50
2022-07-26T03:07:18.311Z,1.60
2022-07-26T03:10:05.612Z,1.47
2022-07-26T03:12:51.822Z,1.60
2022-07-26T03:15:38.999Z,1.50
2022-07-26T03:18:25.600Z,1.40
2022-07-26T03:21:11.879Z,1.73
2022-07-26T03:23:58.216Z,1.40
2022-07-26T03:26:44.439Z,1.57
2022-07-26T03:29:30.985Z,1.53
2022-07-26T03:32:17.375Z,1.60
2022-07-26T03:35:04.428Z,1.60
2022-07-26T03:37:51.217Z,1.73
2022-07-26T03:40:37.863Z,1.50
2022-07-26T03:43:24.260Z,1.30
2022-07-26T03:46:10.576Z,1.30
2022-07-26T03:48:57.785Z,1.60
2022-07-26T03:51:45.162Z,1.70
2022-07-26T03:54:31.573Z,1.53
2022-07-26T03:57:18.246Z,1.57
2022-07-26T04:00:05.210Z,1.57
2022-07-26T04:02:53.738Z,1.60
2022-07-26T04:05:40.312Z,1.57
2022-07-26T04:08:35.090Z,1.60
2022-07-26T04:11:21.568Z,1.70
2022-07-26T04:14:12.968Z,1.57
2022-07-26T04:16:59.379Z,1.50
2022-07-26T04:19:46.081Z,1.83
2022-07-26T04:22:32.692Z,1.60
2022-07-26T04:25:19.218Z,1.60
2022-07-26T04:28:05.706Z,1.30
2022-07-26T04:30:52.163Z,1.40
2022-07-26T04:33:38.845Z,1.50
2022-07-26T04:36:24.991Z,1.53
2022-07-26T04:39:11.307Z,1.70
2022-07-26T04:41:57.590Z,1.50
2022-07-26T04:44:44.030Z,1.63
2022-07-26T04:47:30.506Z,1.70
2022-07-26T04:50:18.277Z,2.17
2022-07-26T04:53:04.986Z,1.60
2022-07-26T04:55:51.145Z,1.70
2022-07-26T04:58:37.361Z,1.80
2022-07-26T05:01:24.108Z,1.50
2022-07-26T05:04:11.229Z,1.90
2022-07-26T05:07:03.094Z,1.90
2022-07-26T05:09:49.504Z,2.03
2022-07-26T05:12:35.722Z,1.70
2022-07-26T05:15:22.505Z,1.63
2022-07-26T05:18:12.685Z,2.30
2022-07-26T05:21:00.068Z,1.80
2022-07-26T05:23:46.902Z,1.60
2022-07-26T05:26:33.268Z,2.10
2022-07-26T05:29:19.451Z,1.60
2022-07-26T05:32:06.225Z,1.87
2022-07-26T05:34:52.714Z,2.13
2022-07-26T05:37:39.026Z,1.80
2022-07-26T05:40:25.368Z,1.90
2022-07-26T05:43:11.725Z,1.40
2022-07-26T05:45:58.219Z,1.50
2022-07-26T05:48:44.935Z,1.70
2022-07-26T05:51:32.517Z,1.60
2022-07-26T05:54:23.035Z,1.65
2022-07-26T05:57:09.410Z,1.85
2022-07-26T05:59:55.775Z,1.70
2022-07-26T06:02:42.083Z,1.63
2022-07-26T06:05:28.695Z,1.70
2022-07-26T06:08:14.968Z,1.65
2022-07-26T06:11:01.859Z,1.58
2022-07-26T06:13:50.589Z,2.13
2022-07-26T06:16:39.960Z,1.90
2022-07-26T06:19:26.310Z,1.20
2022-07-26T06:22:12.854Z,1.47
2022-07-26T06:24:58.978Z,1.53
2022-07-26T06:27:45.121Z,1.50
2022-07-26T06:30:31.539Z,1.50
2022-07-26T06:33:18.206Z,1.30
2022-07-26T06:36:04.587Z,1.50
2022-07-26T06:38:51.281Z,1.23
2022-07-26T06:41:37.636Z,1.30
2022-07-26T06:44:24.091Z,1.50
2022-07-26T06:47:10.245Z,1.20
2022-07-26T06:49:56.675Z,1.40
2022-07-26T06:52:43.831Z,1.40
2022-07-26T06:55:34.406Z,1.50
2022-07-26T06:58:20.619Z,1.23
2022-07-26T07:01:07.471Z,1.03
2022-07-26T07:03:54.183Z,1.10
2022-07-26T07:06:40.618Z,1.70
2022-07-26T07:09:27.432Z,1.30
2022-07-26T07:12:15.214Z,1.20
2022-07-26T07:15:01.991Z,1.30
2022-07-26T07:17:48.353Z,1.37
2022-07-26T07:20:34.629Z,1.40
2022-07-26T07:23:23.109Z,1.23
2022-07-26T07:26:09.524Z,1.43
2022-07-26T07:28:55.883Z,1.20
2022-07-26T07:31:48.829Z,1.30
2022-07-26T07:34:35.762Z,1.20
2022-07-26T07:37:22.501Z,1.10
2022-07-26T07:40:09.819Z,1.00
2022-07-26T07:42:56.734Z,1.10
2022-07-26T07:45:43.738Z,1.20
2022-07-26T07:48:35.133Z,1.23
2022-07-26T07:51:21.822Z,0.90
2022-07-26T07:54:08.308Z,1.00
2022-07-26T07:56:56.218Z,1.50
2022-07-26T07:59:43.016Z,1.30
2022-07-26T08:02:29.310Z,1.03
2022-07-26T08:05:15.810Z,1.00
2022-07-26T08:08:03.406Z,1.10
2022-07-26T08:10:52.430Z,0.87
2022-07-26T08:13:39.765Z,1.17
2022-07-26T08:16:28.209Z,1.03
2022-07-26T08:19:15.331Z,1.13
2022-07-26T08:22:04.305Z,1.00
2022-07-26T08:24:52.374Z,1.00
2022-07-26T08:27:41.145Z,1.17
2022-07-26T08:30:28.035Z,1.00
2022-07-26T08:33:14.261Z,1.30
2022-07-26T08:36:00.864Z,0.97
2022-07-26T08:38:48.523Z,1.00
2022-07-26T08:41:34.885Z,1.03
2022-07-26T08:44:21.248Z,1.00
2022-07-26T08:47:09.893Z,1.23
2022-07-26T08:49:56.229Z,1.10
2022-07-26T08:52:43.537Z,1.10
2022-07-26T08:55:50.314Z,0.80
2022-07-26T08:58:37.224Z,0.87
2022-07-26T09:01:23.869Z,1.00
2022-07-26T09:04:43.825Z,1.00
2022-07-26T09:07:33.778Z,0.73
2022-07-26T09:10:20.229Z,0.90
2022-07-26T09:13:06.452Z,1.00
2022-07-26T09:16:09.953Z,1.30
2022-07-26T09:19:21.289Z,1.17
2022-07-26T09:22:10.651Z,1.03
2022-07-26T09:24:58.754Z,1.10
2022-07-26T09:27:45.330Z,1.10
2022-07-26T09:30:32.447Z,1.13
2022-07-26T09:33:18.720Z,0.93
2022-07-26T09:36:07.351Z,1.40
2022-07-26T09:38:59.990Z,1.40
2022-07-26T09:41:49.387Z,1.20
2022-07-26T09:44:47.956Z,1.20
2022-07-26T09:47:39.664Z,1.17
2022-07-26T09:50:33.484Z,1.00
2022-07-26T09:53:22.715Z,1.03
2022-07-26T09:56:09.306Z,1.43
2022-07-26T09:58:56.098Z,1.13
2022-07-26T10:01:43.864Z,1.30
2022-07-26T10:04:30.326Z,1.40
2022-07-26T10:07:17.161Z,1.03
2022-07-26T10:10:16.931Z,1.00
2022-07-26T10:13:03.608Z,0.87
2022-07-26T10:15:51.770Z,1.20
2022-07-26T10:18:39.296Z,0.80
2022-07-26T10:21:29.945Z,1.10
2022-07-26T10:24:26.631Z,0.90
2022-07-26T10:27:42.077Z,1.10
2022-07-26T10:30:35.034Z,0.90
2022-07-26T10:33:24.819Z,1.00
2022-07-26T10:36:29.833Z,0.97
2022-07-26T10:39:16.410Z,1.00
2022-07-26T10:42:04.296Z,0.98
2022-07-26T10:44:50.571Z,0.70
2022-07-26T10:47:36.697Z,0.70
2022-07-26T10:50:33.447Z,1.10
2022-07-26T10:53:25.257Z,1.10
2022-07-26T10:56:11.378Z,1.00
2022-07-26T10:58:58.110Z,1.02
2022-07-26T11:01:45.369Z,1.10
2022-07-26T11:04:32.000Z,0.90
2022-07-26T11:07:19.742Z,0.80
2022-07-26T11:10:06.449Z,0.93
2022-07-26T11:13:11.753Z,0.68
2022-07-26T11:16:02.190Z,0.85
2022-07-26T11:18:48.594Z,0.93
2022-07-26T11:21:34.767Z,0.93
2022-07-26T11:24:22.071Z,0.77
2022-07-26T11:27:08.639Z,1.93
2022-07-26T11:29:54.887Z,0.90
2022-07-26T11:32:52.688Z,0.88
2022-07-26T11:35:50.655Z,0.90
2022-07-26T11:38:51.543Z,0.80
2022-07-26T11:41:38.005Z,1.00
2022-07-26T11:44:24.401Z,0.90
2022-07-26T11:47:16.432Z,1.00
2022-07-26T11:50:15.360Z,1.08
2022-07-26T11:53:21.685Z,1.08
2022-07-26T11:56:14.276Z,0.70
2022-07-26T11:59:01.056Z,0.70
2022-07-26T12:01:49.790Z,1.10
2022-07-26T12:04:39.365Z,0.80
2022-07-26T12:07:26.137Z,0.88
2022-07-26T12:10:16.641Z,0.98
2022-07-26T12:13:24.342Z,0.88
2022-07-26T12:16:10.895Z,0.82
2022-07-26T12:18:57.453Z,0.70
2022-07-26T12:21:49.868Z,1.00
2022-07-26T12:24:47.280Z,1.10
2022-07-26T12:27:34.069Z,0.70
2022-07-26T12:30:21.257Z,0.70
2022-07-26T12:33:07.758Z,0.77
2022-07-26T12:35:59.637Z,0.73
2022-07-26T12:38:47.739Z,0.90
2022-07-26T12:41:40.479Z,0.82
2022-07-26T12:44:27.032Z,0.73
2022-07-26T12:47:13.431Z,0.88
2022-07-26T12:50:00.561Z,1.00
2022-07-26T12:52:47.598Z,1.13
2022-07-26T12:55:35.401Z,0.77
2022-07-26T12:58:21.751Z,0.85
2022-07-26T13:01:08.102Z,1.00
2022-07-26T13:03:55.598Z,0.90
2022-07-26T13:06:41.825Z,0.98
2022-07-26T13:09:28.234Z,0.88
2022-07-26T13:12:15.565Z,0.90
2022-07-26T13:15:01.967Z,1.02
2022-07-26T13:17:48.517Z,1.25
2022-07-26T13:20:37.732Z,1.02
2022-07-26T13:23:26.695Z,0.88
2022-07-26T13:26:13.258Z,0.90
2022-07-26T13:28:59.550Z,0.93
2022-07-26T13:31:46.232Z,0.98
2022-07-26T13:34:35.086Z,0.88
2022-07-26T13:37:21.911Z,0.73
2022-07-26T13:40:09.307Z,0.77
2022-07-26T13:42:56.081Z,0.65
2022-07-26T13:45:42.523Z,0.90
2022-07-26T13:48:28.968Z,0.88
2022-07-26T13:51:16.468Z,0.70
2022-07-26T13:54:04.631Z,0.45
2022-07-26T13:56:51.537Z,0.75
2022-07-26T13:59:38.056Z,1.08
2022-07-26T14:02:24.459Z,1.00
2022-07-26T14:05:10.853Z,0.95
2022-07-26T14:07:57.346Z,0.80
2022-07-26T14:10:44.035Z,1.02
2022-07-26T14:13:30.272Z,0.75
2022-07-26T14:16:16.665Z,0.90
2022-07-26T14:19:03.637Z,1.00
2022-07-26T14:21:59.220Z,0.98
2022-07-26T14:24:46.165Z,1.05
2022-07-26T14:27:32.834Z,1.10
2022-07-26T14:30:20.764Z,1.05
2022-07-26T14:33:07.192Z,0.50
2022-07-26T14:35:53.784Z,1.00
2022-07-26T14:38:42.181Z,0.93
2022-07-26T14:41:28.766Z,0.80
2022-07-26T14:44:14.917Z,0.93
2022-07-26T14:47:01.403Z,0.90
2022-07-26T14:49:47.576Z,0.90
2022-07-26T14:52:36.602Z,0.90
2022-07-26T14:55:25.430Z,1.08
2022-07-26T14:58:12.449Z,0.90
2022-07-26T15:00:58.842Z,1.13
2022-07-26T15:03:45.510Z,0.80
2022-07-26T15:06:32.500Z,1.10
2022-07-26T15:09:18.919Z,0.90
2022-07-26T15:12:05.801Z,1.30
2022-07-26T15:14:52.529Z,1.20
2022-07-26T15:17:40.297Z,1.00
2022-07-26T15:20:27.023Z,0.95
2022-07-26T15:23:14.931Z,0.90
2022-07-26T15:26:01.546Z,1.13
2022-07-26T15:28:48.085Z,1.10
2022-07-26T15:31:37.717Z,1.05
2022-07-26T15:34:24.454Z,0.90
2022-07-26T15:37:10.961Z,1.25
2022-07-26T15:39:57.267Z,0.90
2022-07-26T15:42:44.824Z,0.77
2022-07-26T15:45:33.245Z,1.40
2022-07-26T15:48:22.612Z,1.10
2022-07-26T15:51:09.550Z,0.90
2022-07-26T15:53:56.103Z,0.90
2022-07-26T15:56:42.308Z,1.02
2022-07-26T15:59:28.585Z,0.90
2022-07-26T16:02:15.720Z,1.20
2022-07-26T16:05:02.134Z,1.05
2022-07-26T16:07:48.600Z,1.38
2022-07-26T16:10:34.861Z,0.93
2022-07-26T16:13:21.421Z,1.05
2022-07-26T16:16:08.164Z,1.10
2022-07-26T16:18:55.817Z,1.10
2022-07-26T16:21:42.265Z,1.00
2022-07-26T16:24:28.643Z,1.10
2022-07-26T16:27:15.069Z,1.00
2022-07-26T16:30:01.708Z,1.27
2022-07-26T16:32:48.017Z,1.40
2022-07-26T16:35:34.407Z,1.10
2022-07-26T16:38:20.611Z,1.20
2022-07-26T16:41:07.625Z,1.00
2022-07-26T16:43:54.226Z,1.07
2022-07-26T16:46:40.518Z,1.30
2022-07-26T16:49:27.752Z,0.98
2022-07-26T16:52:14.526Z,1.20
2022-07-26T16:55:01.032Z,1.10
2022-07-26T16:57:47.542Z,1.00
2022-07-26T17:00:34.039Z,1.00
2022-07-26T17:03:20.670Z,1.00
2022-07-26T17:06:07.606Z,0.90
2022-07-26T17:08:54.187Z,1.10
2022-07-26T17:11:40.322Z,0.90
2022-07-26T17:14:26.568Z,1.20
2022-07-26T17:17:13.132Z,1.20
2022-07-26T17:19:59.342Z,1.10
2022-07-26T17:22:46.143Z,1.00
2022-07-26T17:25:32.371Z,1.27
2022-07-26T17:28:19.005Z,1.20
2022-07-26T17:31:05.411Z,0.85
2022-07-26T17:33:51.714Z,1.38
2022-07-26T17:36:38.323Z,0.90
2022-07-26T17:39:25.539Z,0.87
2022-07-26T17:42:31.742Z,1.20
2022-07-26T17:45:18.062Z,1.00
2022-07-26T17:48:06.457Z,1.30
2022-07-26T17:50:53.220Z,1.27
2022-07-26T17:53:39.640Z,1.30
2022-07-26T17:56:26.079Z,1.33
2022-07-26T17:59:13.402Z,1.20
2022-07-26T18:02:00.303Z,1.37
2022-07-26T18:04:46.858Z,1.30
2022-07-26T18:07:33.152Z,1.43
2022-07-26T18:10:19.497Z,1.65
2022-07-26T18:13:05.706Z,1.20
2022-07-26T18:15:52.322Z,1.33
2022-07-26T18:18:38.782Z,1.37
2022-07-26T18:21:25.159Z,1.30
2022-07-26T18:24:17.904Z,1.23
2022-07-26T18:27:04.399Z,1.50
2022-07-26T18:29:50.667Z,1.30
2022-07-26T18:32:36.905Z,1.67
2022-07-26T18:35:24.256Z,1.40
2022-07-26T18:38:10.399Z,1.60
2022-07-26T18:40:56.722Z,1.60
2022-07-26T18:43:44.071Z,1.20
2022-07-26T18:46:30.234Z,1.73
2022-07-26T18:49:20.002Z,1.23
2022-07-26T18:52:08.836Z,1.30
2022-07-26T18:54:55.532Z,1.23
2022-07-26T18:57:43.500Z,1.67
2022-07-26T19:00:30.474Z,1.30
2022-07-26T19:03:16.656Z,1.50
2022-07-26T19:06:03.850Z,1.30
2022-07-26T19:08:50.422Z,1.53
2022-07-26T19:11:37.662Z,1.60
2022-07-26T19:14:24.884Z,1.67
2022-07-26T19:17:11.684Z,1.70
2022-07-26T19:19:58.326Z,1.73
2022-07-26T19:22:47.027Z,1.57
2022-07-26T19:25:33.681Z,1.50
2022-07-26T19:28:19.883Z,1.50
2022-07-26T19:31:06.268Z,1.80
2022-07-26T19:33:52.698Z,1.60
2022-07-26T19:36:40.536Z,1.40
2022-07-26T19:39:29.566Z,1.40
2022-07-26T19:42:18.447Z,1.30
2022-07-26T19:45:05.231Z,1.60
2022-07-26T19:47:52.467Z,1.40
2022-07-26T19:50:39.131Z,1.40
2022-07-26T19:53:25.503Z,1.67
2022-07-26T19:56:12.038Z,1.50
2022-07-26T19:59:01.654Z,1.47
2022-07-26T20:01:49.988Z,1.07
2022-07-26T20:04:36.251Z,1.60
2022-07-26T20:07:22.695Z,1.40
2022-07-26T20:10:09.472Z,1.40
2022-07-26T20:12:56.781Z,1.37
2022-07-26T20:15:43.071Z,1.30
2022-07-26T20:18:30.738Z,1.30
2022-07-26T20:21:16.952Z,1.20
2022-07-26T20:24:03.755Z,1.60
2022-07-26T20:26:50.600Z,1.33
2022-07-26T20:29:36.858Z,1.50
2022-07-26T20:32:23.044Z,1.30
2022-07-26T20:35:09.463Z,1.40
2022-07-26T20:37:55.974Z,1.30
2022-07-26T20:40:42.258Z,1.30
2022-07-26T20:43:29.195Z,1.57
2022-07-26T20:46:18.533Z,1.60
2022-07-26T20:49:05.217Z,1.70
2022-07-26T20:51:51.795Z,1.40
2022-07-26T20:54:37.954Z,1.70
2022-07-26T20:57:24.120Z,1.33
2022-07-26T21:00:11.529Z,1.20
2022-07-26T21:02:58.987Z,1.57
2022-07-26T21:05:45.779Z,1.40
2022-07-26T21:08:32.305Z,1.60
2022-07-26T21:11:19.337Z,1.40
2022-07-26T21:14:05.858Z,1.83
2022-07-26T21:16:52.399Z,1.63
2022-07-26T21:19:39.559Z,1.50
2022-07-26T21:22:26.072Z,1.40
2022-07-26T21:25:12.434Z,1.53
2022-07-26T21:27:58.876Z,1.80
2022-07-26T21:30:46.094Z,1.50
2022-07-26T21:33:32.374Z,1.60
2022-07-26T21:36:18.922Z,1.70
2022-07-26T21:39:05.601Z,1.70
2022-07-26T21:41:52.075Z,1.40
2022-07-26T21:44:38.343Z,1.57
2022-07-26T21:47:24.635Z,1.87
2022-07-26T21:50:11.052Z,1.87
2022-07-26T21:52:58.435Z,1.70
2022-07-26T21:55:44.863Z,1.67
2022-07-26T21:58:36.111Z,1.67
2022-07-26T22:01:23.383Z,1.80
2022-07-26T22:04:10.209Z,1.63
2022-07-26T22:06:56.439Z,1.70
2022-07-26T22:09:42.778Z,1.70
2022-07-26T22:12:29.975Z,1.80
2022-07-26T22:15:16.336Z,1.60
2022-07-26T22:18:02.774Z,1.90
2022-07-26T22:20:49.794Z,1.80
2022-07-26T22:23:35.994Z,1.77
2022-07-26T22:26:26.096Z,1.50
2022-07-26T22:29:12.758Z,1.70
2022-07-26T22:31:59.527Z,2.00
2022-07-26T22:34:45.691Z,1.83
2022-07-26T22:37:32.470Z,1.97
2022-07-26T22:40:19.082Z,1.80
2022-07-26T22:43:06.207Z,1.70
2022-07-26T22:45:52.457Z,1.80
2022-07-26T22:48:39.898Z,1.80
2022-07-26T22:51:28.687Z,1.47
2022-07-26T22:54:14.979Z,1.63
2022-07-26T22:57:01.240Z,1.87
2022-07-26T22:59:47.626Z,1.90
2022-07-26T23:02:34.955Z,1.80
2022-07-26T23:05:21.479Z,1.50
2022-07-26T23:08:36.583Z,1.57
2022-07-26T23:11:18.980Z,1.90
2022-07-26T23:14:05.557Z,1.67
2022-07-26T23:16:53.331Z,2.20
2022-07-26T23:19:39.985Z,1.63
2022-07-26T23:22:26.438Z,1.70
2022-07-26T23:25:12.833Z,1.80
2022-07-26T23:27:59.439Z,1.70
2022-07-26T23:30:45.968Z,1.43
2022-07-26T23:33:53.196Z,1.70
2022-07-26T23:36:38.936Z,1.70
2022-07-26T23:39:25.154Z,1.40
2022-07-26T23:42:11.734Z,1.73
2022-07-26T23:44:58.268Z,1.90
2022-07-26T23:47:44.747Z,1.90
2022-07-26T23:50:31.231Z,2.00
2022-07-26T23:53:17.957Z,1.80
2022-07-26T23:56:13.325Z,1.50
2022-07-26T23:58:59.439Z,1.80
